createdAt,value
2023-04-19T00:01:35.951Z,7.87
2023-04-19T00:04:04.647Z,6.93
2023-04-19T00:06:33.701Z,8.17
2023-04-19T00:09:03.925Z,11.47
2023-04-19T00:11:34.277Z,12.00
2023-04-19T00:14:03.038Z,8.47
2023-04-19T00:16:33.919Z,8.77
2023-04-19T00:19:02.592Z,10.70
2023-04-19T00:21:31.561Z,11.70
2023-04-19T00:24:00.102Z,9.23
2023-04-19T00:26:30.646Z,9.33
2023-04-19T00:28:58.900Z,8.07
2023-04-19T00:31:28.274Z,9.37
2023-04-19T00:33:58.031Z,10.40
2023-04-19T00:36:26.778Z,9.27
2023-04-19T00:38:54.939Z,9.83
2023-04-19T00:41:23.827Z,9.07
2023-04-19T00:43:54.478Z,8.97
2023-04-19T00:46:26.560Z,8.37
2023-04-19T00:48:57.165Z,8.67
2023-04-19T00:51:53.938Z,12.47
2023-04-19T00:54:40.206Z,9.97
2023-04-19T00:57:09.665Z,10.47
2023-04-19T00:59:42.557Z,9.07
2023-04-19T01:02:12.158Z,11.17
2023-04-19T01:04:40.511Z,9.40
2023-04-19T01:07:10.779Z,7.73
2023-04-19T01:09:43.035Z,7.70
2023-04-19T01:12:12.266Z,9.63
2023-04-19T01:14:42.428Z,8.20
2023-04-19T01:17:11.086Z,9.43
2023-04-19T01:19:39.903Z,8.93
2023-04-19T01:22:21.053Z,8.27
2023-04-19T01:24:53.029Z,10.37
2023-04-19T01:27:23.049Z,8.60
2023-04-19T01:30:06.895Z,11.23
2023-04-19T01:32:35.499Z,8.77
2023-04-19T01:35:04.809Z,9.20
2023-04-19T01:37:44.916Z,8.97
2023-04-19T01:40:17.465Z,14.70
2023-04-19T01:42:46.401Z,10.63
2023-04-19T01:45:14.555Z,11.50
2023-04-19T01:47:42.874Z,11.10
2023-04-19T01:50:12.484Z,11.83
2023-04-19T01:52:40.750Z,11.87
2023-04-19T01:55:10.879Z,9.03
2023-04-19T01:57:48.356Z,12.77
2023-04-19T02:00:19.378Z,11.07
2023-04-19T02:02:58.984Z,9.80
2023-04-19T02:11:38.292Z,11.20
2023-04-19T02:14:09.046Z,10.23
2023-04-19T02:16:38.779Z,11.17
2023-04-19T02:19:07.064Z,10.67
2023-04-19T02:21:36.608Z,11.40
2023-04-19T02:24:05.065Z,13.23
2023-04-19T02:26:33.918Z,11.10
2023-04-19T02:29:02.668Z,10.23
2023-04-19T02:31:33.759Z,13.00
2023-04-19T02:34:02.144Z,11.37
2023-04-19T02:36:31.249Z,12.47
2023-04-19T02:39:00.331Z,11.03
2023-04-19T02:41:28.825Z,12.50
2023-04-19T02:43:57.674Z,10.73
2023-04-19T02:46:26.004Z,15.23
2023-04-19T02:48:56.579Z,10.67
2023-04-19T02:51:24.985Z,15.37
2023-04-19T02:53:53.094Z,15.80
2023-04-19T02:56:21.990Z,16.63
2023-04-19T02:58:50.514Z,12.63
2023-04-19T03:01:20.009Z,13.10
2023-04-19T03:03:48.619Z,12.53
2023-04-19T03:06:19.830Z,15.23
2023-04-19T03:08:48.076Z,12.43
2023-04-19T03:11:17.850Z,15.20
2023-04-19T03:13:46.433Z,13.57
2023-04-19T03:16:14.621Z,13.13
2023-04-19T03:18:43.075Z,14.87
2023-04-19T03:21:11.416Z,15.30
2023-04-19T03:23:41.415Z,20.97
2023-04-19T03:26:09.660Z,17.57
2023-04-19T03:28:38.453Z,16.13
2023-04-19T03:31:06.740Z,21.57
2023-04-19T03:33:34.756Z,16.10
2023-04-19T03:36:02.858Z,17.53
2023-04-19T03:38:31.361Z,17.13
2023-04-19T03:41:03.805Z,19.27
2023-04-19T03:43:32.084Z,15.23
2023-04-19T03:46:00.248Z,17.57
2023-04-19T03:48:28.430Z,16.47
2023-04-19T03:50:56.498Z,19.17
2023-04-19T03:53:24.495Z,17.30
2023-04-19T03:55:53.152Z,16.63
2023-04-19T03:58:23.530Z,20.23
2023-04-19T04:00:52.094Z,19.10
2023-04-19T04:03:20.580Z,17.60
2023-04-19T04:05:48.679Z,19.60
2023-04-19T04:08:16.737Z,21.23
2023-04-19T04:10:44.758Z,18.17
2023-04-19T04:13:12.726Z,15.87
2023-04-19T04:15:42.461Z,16.60
2023-04-19T04:18:12.135Z,22.90
2023-04-19T04:20:40.484Z,18.50
2023-04-19T04:23:11.290Z,19.83
2023-04-19T04:25:39.365Z,20.87
2023-04-19T04:28:10.235Z,20.10
2023-04-19T04:30:38.652Z,20.53
2023-04-19T04:33:08.793Z,23.93
2023-04-19T04:35:36.992Z,17.80
2023-04-19T04:38:17.506Z,19.70
2023-04-19T04:40:53.759Z,20.03
2023-04-19T04:43:22.895Z,21.83
2023-04-19T04:45:51.454Z,22.87
2023-04-19T04:48:22.705Z,25.40
2023-04-19T04:50:50.900Z,23.00
2023-04-19T04:53:19.185Z,18.93
2023-04-19T04:55:47.679Z,21.77
2023-04-19T04:58:16.649Z,26.77
2023-04-19T05:00:45.495Z,23.63
2023-04-19T05:03:14.129Z,26.37
2023-04-19T05:05:45.242Z,22.07
2023-04-19T05:08:13.639Z,21.43
2023-04-19T05:10:41.829Z,26.43
2023-04-19T05:13:10.221Z,27.97
2023-04-19T05:15:38.298Z,25.53
2023-04-19T05:18:07.272Z,22.07
2023-04-19T05:20:35.753Z,26.40
2023-04-19T05:23:05.944Z,23.17
2023-04-19T05:25:34.134Z,21.70
2023-04-19T05:28:03.893Z,26.40
2023-04-19T05:30:31.992Z,26.10
2023-04-19T05:33:00.525Z,21.87
2023-04-19T05:35:28.710Z,24.10
2023-04-19T05:37:57.218Z,21.73
2023-04-19T05:40:26.965Z,26.47
2023-04-19T05:42:58.042Z,29.73
2023-04-19T05:45:27.117Z,25.47
2023-04-19T05:47:55.655Z,23.00
2023-04-19T05:50:23.761Z,30.43
2023-04-19T05:52:51.909Z,24.53
2023-04-19T05:55:20.243Z,26.67
2023-04-19T05:57:50.970Z,28.97
2023-04-19T06:00:19.821Z,30.17
2023-04-19T06:02:48.206Z,25.53
2023-04-19T06:05:16.786Z,24.30
2023-04-19T06:07:54.527Z,28.37
2023-04-19T06:10:25.853Z,22.80
2023-04-19T06:12:58.427Z,24.07
2023-04-19T06:15:27.767Z,22.77
2023-04-19T06:17:57.524Z,27.90
2023-04-19T06:20:27.585Z,25.37
2023-04-19T06:22:55.599Z,20.43
2023-04-19T06:25:24.190Z,20.80
2023-04-19T06:27:52.533Z,25.47
2023-04-19T06:30:22.108Z,21.83
2023-04-19T06:32:50.296Z,27.47
2023-04-19T06:35:19.627Z,26.53
2023-04-19T06:37:47.723Z,26.47
2023-04-19T06:40:15.818Z,26.23
2023-04-19T06:42:43.999Z,23.87
2023-04-19T06:45:13.184Z,28.30
2023-04-19T06:47:43.112Z,26.53
2023-04-19T06:50:13.819Z,24.83
2023-04-19T06:52:42.224Z,22.33
2023-04-19T06:55:11.294Z,23.77
2023-04-19T06:57:39.747Z,23.27
2023-04-19T07:00:10.586Z,21.47
2023-04-19T07:02:39.183Z,24.53
2023-04-19T07:05:12.975Z,24.60
2023-04-19T07:07:41.477Z,24.53
2023-04-19T07:10:11.345Z,23.90
2023-04-19T07:12:48.772Z,20.50
2023-04-19T07:15:17.564Z,20.33
2023-04-19T07:17:47.060Z,23.17
2023-04-19T07:20:17.969Z,25.00
2023-04-19T07:22:46.580Z,23.80
2023-04-19T07:25:16.564Z,23.80
2023-04-19T07:27:45.178Z,23.23
2023-04-19T07:30:13.556Z,21.27
2023-04-19T07:32:42.063Z,19.77
2023-04-19T07:35:10.954Z,20.23
2023-04-19T07:37:40.619Z,20.23
2023-04-19T07:40:10.215Z,19.27
2023-04-19T07:42:40.875Z,22.00
2023-04-19T07:45:11.512Z,18.73
2023-04-19T07:47:39.838Z,19.53
2023-04-19T07:50:10.731Z,19.53
2023-04-19T07:52:40.233Z,21.63
2023-04-19T07:55:09.601Z,25.47
2023-04-19T07:57:37.873Z,23.17
2023-04-19T08:00:07.099Z,17.50
2023-04-19T08:02:35.488Z,23.10
2023-04-19T08:05:04.140Z,21.80
2023-04-19T08:07:33.033Z,20.37
2023-04-19T08:10:02.695Z,20.67
2023-04-19T08:12:39.295Z,21.03
2023-04-19T08:15:32.931Z,22.77
2023-04-19T08:17:59.900Z,19.93
2023-04-19T08:20:29.188Z,22.30
2023-04-19T08:23:00.512Z,21.83
2023-04-19T08:25:32.164Z,22.03
2023-04-19T08:28:00.334Z,19.97
2023-04-19T08:30:37.653Z,25.27
2023-04-19T08:33:06.951Z,20.37
2023-04-19T08:35:36.931Z,24.53
2023-04-19T08:38:08.592Z,24.23
2023-04-19T08:40:49.378Z,21.20
2023-04-19T08:43:19.380Z,22.83
2023-04-19T08:45:49.561Z,22.53
2023-04-19T08:48:20.133Z,23.63
2023-04-19T08:51:04.175Z,21.27
2023-04-19T08:53:35.027Z,21.97
2023-04-19T08:56:21.095Z,19.90
2023-04-19T08:59:19.315Z,24.77
2023-04-19T09:01:48.695Z,22.00
2023-04-19T09:04:35.456Z,20.03
2023-04-19T09:07:05.146Z,25.23
2023-04-19T09:09:42.869Z,22.43
2023-04-19T09:12:19.438Z,26.07
2023-04-19T09:17:19.954Z,19.17
2023-04-19T09:19:49.253Z,21.60
2023-04-19T09:22:18.066Z,23.77
2023-04-19T09:27:27.356Z,19.30
2023-04-19T09:29:56.138Z,25.80
2023-04-19T09:32:25.271Z,23.20
2023-04-19T09:34:56.038Z,22.20
2023-04-19T09:39:56.302Z,19.77
2023-04-19T09:42:47.358Z,23.50
2023-04-19T09:45:29.236Z,23.00
2023-04-19T09:48:07.725Z,23.03
2023-04-19T09:50:50.315Z,25.93
2023-04-19T09:53:24.930Z,25.13
2023-04-19T09:56:01.539Z,23.93
2023-04-19T09:58:42.508Z,25.77
2023-04-19T10:01:20.307Z,21.10
2023-04-19T10:03:51.515Z,21.10
2023-04-19T10:08:56.000Z,20.50
2023-04-19T10:11:27.019Z,20.67
2023-04-19T10:14:01.248Z,23.43
2023-04-19T10:16:32.750Z,20.23
2023-04-19T10:19:02.433Z,22.87
2023-04-19T10:21:31.097Z,19.10
2023-04-19T10:24:00.160Z,21.57
2023-04-19T10:26:28.547Z,21.70
2023-04-19T10:28:58.861Z,20.93
2023-04-19T10:31:28.026Z,22.03
2023-04-19T10:33:57.832Z,21.10
2023-04-19T10:36:29.974Z,20.57
2023-04-19T10:38:58.097Z,20.37
2023-04-19T10:41:59.623Z,19.40
2023-04-19T10:44:29.937Z,21.10
2023-04-19T10:46:59.940Z,22.60
2023-04-19T10:49:30.050Z,18.43
2023-04-19T10:52:00.476Z,22.73
2023-04-19T10:54:34.495Z,18.50
2023-04-19T10:57:05.694Z,24.43
2023-04-19T10:59:35.923Z,20.53
2023-04-19T11:02:06.741Z,20.83
2023-04-19T11:05:14.215Z,19.90
2023-04-19T11:07:43.897Z,21.70
2023-04-19T11:10:12.976Z,19.87
2023-04-19T11:12:45.275Z,20.67
2023-04-19T11:15:14.769Z,19.83
2023-04-19T11:17:43.043Z,19.17
2023-04-19T11:20:13.601Z,26.83
2023-04-19T11:22:44.099Z,21.63
2023-04-19T11:25:14.247Z,19.57
2023-04-19T11:27:44.505Z,21.13
2023-04-19T11:30:17.504Z,20.17
2023-04-19T11:32:52.896Z,20.83
2023-04-19T11:35:23.185Z,18.07
2023-04-19T11:37:53.420Z,18.93
2023-04-19T11:40:23.846Z,20.07
2023-04-19T11:42:56.519Z,22.20
2023-04-19T11:45:35.528Z,16.63
2023-04-19T11:48:09.755Z,19.17
2023-04-19T11:50:39.839Z,19.43
2023-04-19T11:53:14.090Z,19.83
2023-04-19T11:55:47.782Z,18.97
2023-04-19T11:58:33.923Z,17.70
2023-04-19T12:01:10.169Z,23.60
2023-04-19T12:03:46.460Z,21.70
2023-04-19T12:06:16.373Z,20.90
2023-04-19T12:08:47.517Z,18.40
2023-04-19T12:11:15.854Z,19.37
2023-04-19T12:13:44.596Z,17.73
2023-04-19T12:16:15.174Z,17.67
2023-04-19T12:18:45.482Z,19.60
2023-04-19T12:21:26.479Z,17.03
2023-04-19T12:23:59.125Z,17.93
2023-04-19T12:26:28.677Z,22.00
2023-04-19T12:28:57.665Z,15.57
2023-04-19T12:31:27.922Z,18.20
2023-04-19T12:33:56.389Z,17.97
2023-04-19T12:36:26.586Z,15.87
2023-04-19T12:38:54.866Z,14.37
2023-04-19T12:41:23.099Z,16.40
2023-04-19T12:43:51.501Z,19.37
2023-04-19T12:46:20.201Z,22.17
2023-04-19T12:48:50.087Z,16.03
2023-04-19T12:51:18.172Z,17.00
2023-04-19T12:53:49.684Z,15.93
2023-04-19T12:56:19.873Z,15.87
2023-04-19T12:58:48.405Z,15.10
2023-04-19T13:01:19.939Z,14.80
2023-04-19T13:03:50.376Z,16.40
2023-04-19T13:06:19.080Z,15.33
2023-04-19T13:08:47.915Z,16.27
2023-04-19T13:11:17.887Z,14.03
2023-04-19T13:13:46.600Z,14.93
2023-04-19T13:16:20.104Z,15.03
2023-04-19T13:18:51.441Z,11.63
2023-04-19T13:21:23.431Z,12.70
2023-04-19T13:23:52.129Z,14.35
2023-04-19T13:26:20.698Z,12.15
2023-04-19T13:28:48.921Z,10.88
2023-04-19T13:31:18.109Z,10.77
2023-04-19T13:33:46.995Z,10.55
2023-04-19T13:36:19.966Z,10.93
2023-04-19T13:38:50.063Z,13.07
2023-04-19T13:41:18.923Z,11.02
2023-04-19T13:43:48.713Z,12.30
2023-04-19T13:46:17.543Z,10.90
2023-04-19T13:48:46.364Z,9.77
2023-04-19T13:51:15.085Z,9.65
2023-04-19T13:53:50.225Z,10.93
2023-04-19T13:56:18.675Z,10.18
2023-04-19T13:58:47.196Z,10.88
2023-04-19T14:01:16.948Z,9.50
2023-04-19T14:03:46.746Z,11.55
2023-04-19T14:06:15.204Z,10.02
2023-04-19T14:08:49.629Z,9.73
2023-04-19T14:11:21.864Z,8.88
2023-04-19T14:13:50.648Z,10.80
2023-04-19T14:16:19.203Z,9.10
2023-04-19T14:18:47.712Z,11.25
2023-04-19T14:21:16.320Z,10.25
2023-04-19T14:23:46.105Z,10.38
2023-04-19T14:26:14.330Z,11.85
2023-04-19T14:28:45.407Z,11.20
2023-04-19T14:31:17.606Z,9.57
2023-04-19T14:33:46.552Z,8.30
2023-04-19T14:36:14.776Z,10.05
2023-04-19T14:38:43.209Z,8.82
2023-04-19T14:41:16.671Z,9.10
2023-04-19T14:43:46.521Z,7.95
2023-04-19T14:46:15.428Z,9.73
2023-04-19T14:48:44.342Z,9.07
2023-04-19T14:51:12.829Z,8.95
2023-04-19T14:53:41.496Z,9.02
2023-04-19T14:56:10.085Z,8.82
2023-04-19T14:58:40.091Z,8.13
2023-04-19T15:01:15.354Z,8.80
2023-04-19T15:03:48.893Z,8.60
2023-04-19T15:06:20.887Z,8.43
2023-04-19T15:11:41.204Z,8.25
2023-04-19T15:14:13.349Z,8.55
2023-04-19T15:19:30.003Z,10.23
2023-04-19T15:22:09.713Z,8.80
2023-04-19T15:24:38.153Z,9.52
2023-04-19T15:27:07.313Z,9.27
2023-04-19T15:29:42.274Z,9.73
2023-04-19T15:32:25.845Z,10.25
2023-04-19T15:34:54.564Z,10.52
2023-04-19T15:37:32.206Z,14.77
2023-04-19T15:40:09.798Z,10.63
2023-04-19T15:42:38.199Z,11.48
2023-04-19T15:45:12.667Z,10.95
2023-04-19T15:47:55.331Z,12.38
2023-04-19T15:53:37.093Z,11.93
2023-04-19T15:58:49.323Z,8.95
2023-04-19T16:07:05.413Z,9.70
2023-04-19T16:15:18.036Z,8.52
2023-04-19T16:21:30.274Z,8.63
2023-04-19T16:24:02.598Z,8.30
2023-04-19T16:29:21.039Z,7.82
2023-04-19T16:34:25.713Z,9.27
2023-04-19T16:36:56.042Z,8.10
2023-04-19T16:39:24.406Z,11.15
2023-04-19T16:41:52.968Z,7.65
2023-04-19T16:44:21.029Z,7.97
2023-04-19T16:47:12.002Z,7.22
2023-04-19T16:49:41.894Z,7.90
2023-04-19T16:59:03.666Z,6.80
2023-04-19T18:23:40.078Z,9.20
2023-04-19T19:23:18.224Z,10.60
2023-04-19T19:26:37.130Z,8.43
2023-04-19T19:38:57.805Z,9.17
2023-04-19T19:41:56.308Z,7.83
2023-04-19T19:44:15.888Z,11.67
2023-04-19T19:46:58.706Z,9.80
2023-04-19T19:49:42.012Z,7.90
2023-04-19T19:59:30.159Z,11.17
2023-04-19T20:02:26.615Z,8.70
2023-04-19T20:11:08.082Z,12.80
2023-04-19T20:13:37.182Z,11.47
2023-04-19T20:19:40.855Z,10.33
2023-04-19T20:45:19.200Z,5.60
2023-04-19T20:50:23.170Z,5.97
2023-04-19T21:20:23.581Z,6.03
2023-04-19T21:22:55.651Z,5.80
2023-04-19T21:25:24.246Z,4.93
2023-04-19T21:27:55.090Z,5.40
2023-04-19T22:35:02.707Z,5.53
2023-04-19T23:44:38.384Z,6.33
2023-04-19T23:47:23.505Z,5.50
2023-04-19T23:52:43.021Z,9.40
2023-04-19T23:58:21.622Z,8.23
